Time;durP1;ratioP1;P1;durP2;ratioP2;P2;SDS_P1;SDS_P2;PMS_P1;PMS_P2;Temp;Humidity;BMP_temperature;BMP_pressure;BME280_temperature;BME280_humidity;BME280_pressure;Samples;Min_cycle;Max_cycle;Signal;HPM_P1;HPM_P2
2023/03/30 00:00:58;;;;;;;16.38;11.25;;;11.70;99.90;;;;;;5009362;28;20071;-54
2023/03/30 00:03:26;;;;;;;17.83;11.32;;;11.70;99.90;;;;;;4976597;28;20541;-56
2023/03/30 00:05:55;;;;;;;15.65;11.60;;;11.70;99.90;;;;;;4991650;28;20041;-52
2023/03/30 00:08:27;;;;;;;15.23;11.60;;;11.70;99.90;;;;;;4994816;28;20052;-52
2023/03/30 00:11:00;;;;;;;16.20;10.13;;;11.70;99.90;;;;;;5016692;28;20492;-52
2023/03/30 00:13:27;;;;;;;17.50;10.75;;;11.70;99.90;;;;;;5013520;28;20549;-53
2023/03/30 00:15:53;;;;;;;15.70;10.07;;;11.70;99.90;;;;;;5003225;28;20482;-54
2023/03/30 00:18:19;;;;;;;13.88;10.35;;;11.70;99.90;;;;;;4990321;28;20070;-53
2023/03/30 00:20:47;;;;;;;12.55;10.10;;;11.80;99.90;;;;;;4992950;28;20258;-55
2023/03/30 00:23:13;;;;;;;13.13;10.65;;;11.80;99.90;;;;;;5008735;28;20034;-52
2023/03/30 00:25:40;;;;;;;14.80;9.48;;;11.80;99.90;;;;;;4992598;28;20053;-54
2023/03/30 00:28:06;;;;;;;16.52;9.73;;;11.80;99.90;;;;;;5011510;28;20050;-52
2023/03/30 00:30:32;;;;;;;17.50;9.68;;;11.80;99.90;;;;;;4990042;28;20046;-53
2023/03/30 00:32:57;;;;;;;15.50;9.27;;;11.80;99.90;;;;;;5012812;28;20082;-54
2023/03/30 00:35:25;;;;;;;16.52;8.57;;;11.90;99.90;;;;;;5006593;28;20518;-54
2023/03/30 00:37:51;;;;;;;13.80;9.13;;;11.90;99.90;;;;;;5015025;28;20046;-54
2023/03/30 00:40:22;;;;;;;15.35;9.05;;;11.90;99.90;;;;;;4992510;28;20408;-53
2023/03/30 00:42:48;;;;;;;14.23;9.20;;;11.90;99.90;;;;;;5007383;28;20041;-53
2023/03/30 00:45:25;;;;;;;10.77;8.68;;;11.90;99.90;;;;;;5009552;28;20120;-54
2023/03/30 00:48:02;;;;;;;12.07;8.20;;;12.00;99.90;;;;;;4994883;28;20051;-52
2023/03/30 00:50:34;;;;;;;13.98;9.10;;;12.00;99.90;;;;;;4989841;28;20046;-53
2023/03/30 00:53:10;;;;;;;12.95;8.30;;;12.00;99.90;;;;;;4995615;28;21322;-52
2023/03/30 00:55:38;;;;;;;11.18;8.23;;;12.00;99.90;;;;;;5007036;28;20288;-53
2023/03/30 00:58:06;;;;;;;12.48;8.10;;;12.00;99.90;;;;;;5015486;28;20069;-53
2023/03/30 01:00:33;;;;;;;14.77;8.05;;;12.00;99.90;;;;;;5006012;28;20037;-52
2023/03/30 01:03:03;;;;;;;12.07;7.57;;;12.00;99.90;;;;;;5008779;28;20046;-53
2023/03/30 01:05:29;;;;;;;11.55;7.55;;;12.00;99.90;;;;;;5004511;28;20499;-55
2023/03/30 01:07:57;;;;;;;13.10;8.07;;;12.10;99.90;;;;;;4990815;28;20048;-56
2023/03/30 01:10:23;;;;;;;11.20;7.97;;;12.10;99.90;;;;;;4988731;28;20081;-52
2023/03/30 01:12:49;;;;;;;12.80;8.30;;;12.10;99.90;;;;;;4997870;28;20046;-52
2023/03/30 01:15:15;;;;;;;10.23;7.22;;;12.10;99.90;;;;;;5011375;28;20042;-52
2023/03/30 01:18:18;;;;;;;12.15;7.82;;;12.10;99.90;;;;;;4992959;28;20092;-55
2023/03/30 01:20:57;;;;;;;15.13;7.90;;;12.10;99.90;;;;;;5018207;28;20509;-56
2023/03/30 01:24:04;;;;;;;13.18;8.07;;;12.10;99.90;;;;;;5007943;28;20037;-55
2023/03/30 01:26:41;;;;;;;16.20;8.70;;;12.10;99.90;;;;;;4992163;28;20037;-54
2023/03/30 01:29:14;;;;;;;14.10;7.65;;;12.10;99.90;;;;;;5006705;28;20128;-54
2023/03/30 01:31:51;;;;;;;11.55;7.95;;;12.10;99.90;;;;;;4995752;28;20044;-53
2023/03/30 01:34:53;;;;;;;14.48;7.55;;;12.00;99.90;;;;;;4993283;28;20501;-53
2023/03/30 01:37:46;;;;;;;16.85;7.28;;;12.00;99.90;;;;;;4977487;28;20184;-55
2023/03/30 01:40:29;;;;;;;12.63;7.68;;;12.00;99.90;;;;;;5005642;28;20048;-58
2023/03/30 01:43:07;;;;;;;10.70;6.20;;;12.00;99.90;;;;;;4991823;28;20104;-53
2023/03/30 01:46:00;;;;;;;12.55;7.47;;;12.00;99.90;;;;;;4995987;28;20136;-54
2023/03/30 01:48:46;;;;;;;9.32;6.03;;;12.00;99.90;;;;;;5008432;28;20121;-53
2023/03/30 01:51:25;;;;;;;12.13;7.43;;;12.00;99.90;;;;;;5012829;28;20025;-52
2023/03/30 01:53:58;;;;;;;11.55;6.70;;;12.00;99.90;;;;;;4998961;28;20100;-54
2023/03/30 01:56:31;;;;;;;9.77;6.03;;;12.00;99.90;;;;;;5000416;28;20498;-53
2023/03/30 01:59:09;;;;;;;11.93;6.50;;;12.00;99.90;;;;;;5004797;28;20045;-53
2023/03/30 02:01:38;;;;;;;12.15;6.90;;;12.10;99.90;;;;;;4986453;28;20050;-53
2023/03/30 02:04:05;;;;;;;11.65;6.13;;;12.00;99.90;;;;;;4981292;28;20052;-53
2023/03/30 02:06:38;;;;;;;9.57;5.95;;;12.00;99.90;;;;;;5001809;28;20073;-52
2023/03/30 02:09:14;;;;;;;9.02;5.45;;;12.00;99.90;;;;;;4994386;28;20205;-54
2023/03/30 02:11:45;;;;;;;12.35;5.47;;;12.00;99.90;;;;;;5013604;28;20524;-54
2023/03/30 02:14:12;;;;;;;11.32;5.80;;;12.00;99.90;;;;;;5002975;28;20413;-55
2023/03/30 02:16:47;;;;;;;11.80;5.18;;;11.90;99.90;;;;;;4992768;28;20050;-57
2023/03/30 02:19:14;;;;;;;12.60;5.95;;;11.90;99.90;;;;;;5005333;28;20112;-53
2023/03/30 02:21:41;;;;;;;11.38;5.00;;;12.00;99.90;;;;;;4995732;28;20571;-53
2023/03/30 02:24:18;;;;;;;10.25;4.70;;;12.00;99.90;;;;;;5001524;28;20052;-52
2023/03/30 02:26:52;;;;;;;16.05;4.95;;;12.00;99.90;;;;;;5009085;28;20100;-52
2023/03/30 02:29:19;;;;;;;13.18;4.22;;;12.00;99.90;;;;;;4994502;28;20072;-55
2023/03/30 02:31:47;;;;;;;11.38;5.05;;;12.00;99.90;;;;;;5012319;28;20053;-56
2023/03/30 02:34:34;;;;;;;10.13;4.65;;;12.00;99.90;;;;;;5000607;28;20530;-52
2023/03/30 02:37:28;;;;;;;8.77;4.18;;;12.00;99.90;;;;;;5014539;28;20469;-53
2023/03/30 02:40:31;;;;;;;12.73;4.30;;;12.00;99.90;;;;;;5000608;28;20163;-52
2023/03/30 02:43:15;;;;;;;12.90;4.07;;;12.00;99.90;;;;;;5003750;28;20232;-52
2023/03/30 02:45:59;;;;;;;9.98;4.13;;;12.00;99.90;;;;;;4988956;28;20042;-54
2023/03/30 02:48:39;;;;;;;12.82;4.70;;;12.00;99.90;;;;;;4999743;28;20069;-53
2023/03/30 02:51:23;;;;;;;11.55;4.57;;;11.90;99.90;;;;;;5008774;28;20484;-55
2023/03/30 02:54:26;;;;;;;13.48;4.53;;;11.90;99.90;;;;;;5002742;28;20408;-51
2023/03/30 02:57:13;;;;;;;9.73;3.65;;;11.90;99.90;;;;;;5002907;28;20045;-52
2023/03/30 02:59:45;;;;;;;9.85;4.60;;;11.90;99.90;;;;;;4991480;28;20172;-53
2023/03/30 03:02:18;;;;;;;9.07;4.20;;;11.90;99.90;;;;;;5008926;28;20489;-52
2023/03/30 03:04:45;;;;;;;;;;;11.90;99.90;;;;;;5011459;28;20045;-52
2023/03/30 03:07:12;;;;;;;13.73;4.93;;;11.90;99.90;;;;;;4993174;28;20203;-51
2023/03/30 03:09:38;;;;;;;7.70;4.30;;;11.90;99.90;;;;;;5002710;28;20041;-53
2023/03/30 03:12:04;;;;;;;11.40;4.30;;;11.80;99.90;;;;;;5001710;28;20426;-55
2023/03/30 03:14:30;;;;;;;12.55;4.72;;;11.80;99.90;;;;;;4981492;28;20095;-53
2023/03/30 03:16:56;;;;;;;11.38;4.78;;;11.80;99.90;;;;;;4997428;28;20389;-57
2023/03/30 03:19:22;;;;;;;13.68;5.05;;;11.80;99.90;;;;;;5000269;28;20042;-55
2023/03/30 03:21:47;;;;;;;13.18;5.20;;;11.80;99.90;;;;;;4990910;28;20034;-54
2023/03/30 03:24:16;;;;;;;11.75;4.75;;;11.80;99.90;;;;;;4992197;28;20452;-56
2023/03/30 03:26:42;;;;;;;19.23;5.13;;;11.80;99.90;;;;;;5007911;28;20041;-53
2023/03/30 03:29:08;;;;;;;8.60;4.78;;;11.80;99.90;;;;;;4982824;28;20068;-54
2023/03/30 03:31:34;;;;;;;13.13;4.72;;;11.90;99.90;;;;;;5013484;28;20493;-55
2023/03/30 03:34:00;;;;;;;11.38;4.00;;;11.80;99.90;;;;;;5003721;28;20939;-52
2023/03/30 03:36:27;;;;;;;13.48;5.05;;;11.80;99.90;;;;;;5012742;28;20410;-53
2023/03/30 03:38:53;;;;;;;11.10;4.53;;;11.80;99.90;;;;;;5016193;28;20041;-52
2023/03/30 03:41:18;;;;;;;10.27;4.65;;;11.80;99.90;;;;;;4986446;28;20046;-56
2023/03/30 03:43:44;;;;;;;9.15;4.63;;;11.80;99.90;;;;;;5005280;28;20045;-54
2023/03/30 03:46:10;;;;;;;8.88;3.70;;;11.80;99.90;;;;;;4997581;28;20033;-54
2023/03/30 03:48:37;;;;;;;11.40;5.38;;;11.70;99.90;;;;;;4990462;28;20529;-52
2023/03/30 03:51:04;;;;;;;8.10;4.00;;;11.70;99.90;;;;;;5013654;28;20053;-53
2023/03/30 03:53:30;;;;;;;11.20;4.25;;;11.70;99.90;;;;;;5003362;28;20386;-54
2023/03/30 03:55:56;;;;;;;11.40;4.72;;;11.60;99.90;;;;;;4982450;28;20132;-53
2023/03/30 03:58:23;;;;;;;8.57;4.57;;;11.70;99.90;;;;;;4989093;28;20046;-53
2023/03/30 04:00:49;;;;;;;12.88;4.78;;;11.60;99.90;;;;;;5003854;28;20548;-52
2023/03/30 04:03:15;;;;;;;11.93;4.28;;;11.60;99.90;;;;;;4996367;28;20490;-56
2023/03/30 04:05:41;;;;;;;9.95;4.68;;;11.60;99.90;;;;;;5007396;28;20844;-53
2023/03/30 04:08:09;;;;;;;13.93;4.45;;;11.50;99.90;;;;;;5009449;28;20423;-53
2023/03/30 04:10:39;;;;;;;12.65;4.13;;;11.50;99.90;;;;;;4991832;28;20574;-53
2023/03/30 04:13:05;;;;;;;9.80;3.85;;;11.40;99.90;;;;;;5014863;28;20050;-54
2023/03/30 04:15:31;;;;;;;13.73;4.72;;;11.40;99.90;;;;;;4993398;28;20405;-56
2023/03/30 04:17:57;;;;;;;13.50;4.15;;;11.40;99.90;;;;;;5007227;28;20614;-54
2023/03/30 04:20:24;;;;;;;14.85;3.72;;;11.40;99.90;;;;;;5013214;28;20449;-52
2023/03/30 04:22:52;;;;;;;12.10;3.75;;;11.40;99.90;;;;;;4993531;28;20099;-55
2023/03/30 04:25:20;;;;;;;6.72;3.67;;;11.50;99.90;;;;;;4989780;28;20060;-52
2023/03/30 04:27:50;;;;;;;11.52;3.30;;;11.50;99.90;;;;;;4991019;28;20104;-55
2023/03/30 04:30:17;;;;;;;9.95;3.50;;;11.50;99.90;;;;;;5016622;28;20037;-54
2023/03/30 04:32:45;;;;;;;9.70;3.65;;;11.50;99.90;;;;;;4988563;28;20046;-54
2023/03/30 04:35:13;;;;;;;10.07;3.17;;;11.50;99.90;;;;;;4996225;28;20084;-52
2023/03/30 04:37:40;;;;;;;9.40;3.78;;;11.50;99.90;;;;;;4992072;28;20072;-52
2023/03/30 04:40:11;;;;;;;12.20;3.33;;;11.50;99.90;;;;;;4978761;28;20608;-53
2023/03/30 04:42:38;;;;;;;10.85;3.30;;;11.60;99.90;;;;;;4973877;28;20042;-54
2023/03/30 04:45:09;;;;;;;15.95;3.67;;;11.60;99.90;;;;;;5016309;28;20047;-55
2023/03/30 04:47:35;;;;;;;7.50;3.10;;;11.60;99.90;;;;;;5012043;28;20049;-55
2023/03/30 04:50:01;;;;;;;15.25;4.13;;;11.60;99.90;;;;;;4996625;28;20034;-53
2023/03/30 04:52:27;;;;;;;13.07;4.45;;;11.60;99.90;;;;;;4989748;28;20045;-54
2023/03/30 04:54:53;;;;;;;11.00;3.30;;;11.60;99.90;;;;;;4996490;28;20045;-55
2023/03/30 04:57:19;;;;;;;10.55;3.40;;;11.60;99.90;;;;;;4987066;28;20055;-53
2023/03/30 04:59:45;;;;;;;11.50;3.25;;;11.60;99.90;;;;;;5015217;28;20073;-54
2023/03/30 05:02:12;;;;;;;13.25;3.90;;;11.60;99.90;;;;;;5013629;28;20097;-55
2023/03/30 05:04:38;;;;;;;15.82;3.30;;;11.60;99.90;;;;;;5011235;28;20038;-55
2023/03/30 05:07:05;;;;;;;14.48;3.92;;;11.60;99.90;;;;;;4992114;28;20038;-53
2023/03/30 05:09:31;;;;;;;9.40;3.35;;;11.40;99.90;;;;;;5007653;28;20045;-52
2023/03/30 05:11:57;;;;;;;12.07;3.63;;;11.60;99.90;;;;;;5013865;28;20044;-55
2023/03/30 05:14:23;;;;;;;16.17;3.75;;;11.60;99.90;;;;;;5011951;28;20408;-55
2023/03/30 05:16:49;;;;;;;12.73;3.47;;;11.60;99.90;;;;;;5013613;28;20030;-53
2023/03/30 05:19:14;;;;;;;14.45;4.07;;;11.60;99.90;;;;;;4999920;28;20045;-54
2023/03/30 05:21:40;;;;;;;13.02;3.17;;;11.60;99.90;;;;;;5013460;28;20406;-57
2023/03/30 05:24:06;;;;;;;11.52;3.60;;;11.60;99.90;;;;;;5004964;28;20698;-56
2023/03/30 05:26:32;;;;;;;13.68;3.30;;;11.60;99.90;;;;;;5007180;28;20041;-56
2023/03/30 05:28:58;;;;;;;13.95;3.30;;;11.60;99.90;;;;;;4999847;28;20037;-55
2023/03/30 05:31:24;;;;;;;18.67;4.15;;;11.60;99.90;;;;;;4992056;28;20577;-57
2023/03/30 05:33:51;;;;;;;11.40;3.35;;;11.70;99.90;;;;;;4988331;28;20057;-56
2023/03/30 05:36:17;;;;;;;11.95;3.38;;;11.60;99.90;;;;;;4976542;28;20054;-56
2023/03/30 05:38:43;;;;;;;11.18;3.15;;;11.70;99.90;;;;;;4992261;28;20442;-53
2023/03/30 05:41:09;;;;;;;10.77;2.67;;;11.70;99.90;;;;;;4989808;28;20100;-54
2023/03/30 05:43:35;;;;;;;12.93;3.08;;;11.70;99.90;;;;;;4989110;28;20500;-54
2023/03/30 05:46:02;;;;;;;13.68;3.08;;;11.70;99.90;;;;;;4986694;28;20045;-54
2023/03/30 05:48:28;;;;;;;13.27;3.15;;;11.70;99.90;;;;;;4991170;28;20049;-56
2023/03/30 05:50:55;;;;;;;11.82;3.13;;;11.70;99.90;;;;;;4975262;28;20405;-53
2023/03/30 05:53:20;;;;;;;11.63;3.00;;;11.70;99.90;;;;;;5005922;28;20049;-56
2023/03/30 05:55:47;;;;;;;12.55;2.90;;;11.80;99.90;;;;;;4986706;28;20072;-54
2023/03/30 05:58:15;;;;;;;10.75;2.92;;;11.80;99.90;;;;;;4992905;28;20405;-55
2023/03/30 06:00:42;;;;;;;11.55;3.20;;;11.80;99.90;;;;;;5009157;28;20069;-54
2023/03/30 06:03:09;;;;;;;10.93;3.17;;;11.80;99.90;;;;;;4981327;28;20034;-54
2023/03/30 06:05:40;;;;;;;13.23;3.38;;;11.90;99.90;;;;;;5009653;28;20076;-58
2023/03/30 06:08:09;;;;;;;9.32;3.17;;;11.90;99.90;;;;;;4977412;28;20050;-55
2023/03/30 06:10:35;;;;;;;15.43;3.50;;;12.00;99.90;;;;;;4987963;28;20042;-56
2023/03/30 06:13:01;;;;;;;14.18;3.97;;;12.00;99.90;;;;;;5009360;28;20369;-54
2023/03/30 06:15:28;;;;;;;15.45;3.28;;;11.90;99.90;;;;;;4985673;28;20116;-56
2023/03/30 06:17:53;;;;;;;16.52;3.22;;;11.90;99.90;;;;;;5008847;28;20041;-53
2023/03/30 06:20:20;;;;;;;15.32;3.22;;;11.90;99.90;;;;;;4971087;28;20042;-56
2023/03/30 06:22:50;;;;;;;14.27;3.13;;;11.90;99.90;;;;;;5008157;28;20042;-54
2023/03/30 06:25:19;;;;;;;12.85;3.33;;;11.90;99.90;;;;;;4993688;28;20038;-55
2023/03/30 06:27:46;;;;;;;12.23;3.88;;;11.90;99.90;;;;;;5008933;28;20121;-55
2023/03/30 06:30:12;;;;;;;9.82;2.80;;;11.90;99.90;;;;;;4986232;28;20368;-54
2023/03/30 06:32:38;;;;;;;15.80;3.30;;;11.90;99.90;;;;;;4991541;28;20084;-54
2023/03/30 06:35:04;;;;;;;13.43;3.13;;;11.90;99.90;;;;;;5003251;28;20441;-55
2023/03/30 06:37:31;;;;;;;17.05;3.60;;;11.90;99.90;;;;;;4999695;28;20070;-57
2023/03/30 06:39:57;;;;;;;14.98;3.72;;;11.90;99.90;;;;;;4989734;28;20092;-55
2023/03/30 06:42:25;;;;;;;13.43;3.40;;;11.90;99.90;;;;;;4989172;28;20437;-57
2023/03/30 06:44:51;;;;;;;16.17;3.83;;;11.90;99.90;;;;;;4984382;28;20054;-58
2023/03/30 06:47:18;;;;;;;18.23;4.00;;;11.90;99.90;;;;;;5006690;28;20054;-57
2023/03/30 06:49:43;;;;;;;16.40;3.75;;;11.90;99.90;;;;;;4995223;28;20137;-57
2023/03/30 06:52:11;;;;;;;20.25;4.05;;;11.90;99.90;;;;;;4995168;28;20050;-56
2023/03/30 06:54:37;;;;;;;17.80;4.07;;;12.00;99.90;;;;;;4985387;28;20116;-55
2023/03/30 06:57:03;;;;;;;13.60;3.33;;;11.90;99.90;;;;;;5006180;28;20046;-55
2023/03/30 06:59:29;;;;;;;20.38;4.65;;;12.00;99.90;;;;;;4991543;28;20085;-55
2023/03/30 07:01:55;;;;;;;22.77;4.20;;;12.00;99.90;;;;;;4993578;28;20077;-56
2023/03/30 07:04:20;;;;;;;20.20;3.90;;;12.00;99.90;;;;;;4992809;28;20042;-54
2023/03/30 07:06:46;;;;;;;17.08;4.50;;;12.00;99.90;;;;;;5006304;28;20049;-56
2023/03/30 07:09:12;;;;;;;18.55;3.92;;;11.90;99.90;;;;;;5014129;28;20049;-55
2023/03/30 07:11:38;;;;;;;21.23;4.35;;;11.90;99.90;;;;;;4999559;28;20405;-56
2023/03/30 07:14:04;;;;;;;20.95;4.05;;;11.90;99.90;;;;;;5010771;28;20041;-57
2023/03/30 07:16:30;;;;;;;15.48;4.22;;;11.90;99.90;;;;;;4997318;28;20099;-55
2023/03/30 07:18:56;;;;;;;20.65;5.22;;;11.90;99.90;;;;;;4996241;28;20132;-56
2023/03/30 07:21:22;;;;;;;23.60;4.20;;;11.90;99.90;;;;;;5014192;28;20038;-55
2023/03/30 07:23:48;;;;;;;19.83;5.35;;;11.90;99.90;;;;;;5012597;28;20053;-53
2023/03/30 07:26:13;;;;;;;23.80;6.38;;;11.80;99.90;;;;;;5010388;28;20050;-56
2023/03/30 07:28:39;;;;;;;22.52;5.07;;;11.80;99.90;;;;;;5008905;28;20042;-53
2023/03/30 07:31:07;;;;;;;25.27;4.72;;;11.80;99.90;;;;;;4988112;28;20440;-56
2023/03/30 07:33:35;;;;;;;24.52;5.43;;;11.80;99.90;;;;;;5005790;28;20050;-58
2023/03/30 07:36:02;;;;;;;26.92;5.55;;;11.80;99.90;;;;;;4995717;28;20374;-56
2023/03/30 07:38:28;;;;;;;19.00;4.22;;;11.80;99.90;;;;;;4994945;28;20049;-56
2023/03/30 07:40:54;;;;;;;23.52;5.13;;;11.80;99.90;;;;;;4994736;28;20050;-56
2023/03/30 07:43:20;;;;;;;24.05;4.55;;;11.80;99.90;;;;;;5011696;28;20493;-56
2023/03/30 07:45:46;;;;;;;29.42;4.80;;;11.80;99.90;;;;;;5011487;28;20049;-56
2023/03/30 07:48:12;;;;;;;27.90;4.90;;;11.80;99.90;;;;;;4994294;28;20104;-56
2023/03/30 07:50:37;;;;;;;28.58;4.68;;;11.70;99.90;;;;;;4993929;28;20053;-57
2023/03/30 07:53:03;;;;;;;27.35;5.05;;;11.70;99.90;;;;;;5014885;28;20122;-54
2023/03/30 07:55:29;;;;;;;29.30;5.10;;;11.70;99.90;;;;;;5003187;28;20084;-55
2023/03/30 07:57:56;;;;;;;25.88;5.85;;;11.70;99.90;;;;;;4981586;28;20077;-56
2023/03/30 08:00:22;;;;;;;25.70;6.03;;;11.70;99.90;;;;;;4987063;28;20088;-53
2023/03/30 08:02:49;;;;;;;31.45;6.28;;;11.70;99.90;;;;;;5002325;28;20112;-53
2023/03/30 08:05:17;;;;;;;32.10;5.78;;;11.70;99.90;;;;;;5011846;28;20398;-54
2023/03/30 08:07:44;;;;;;;27.33;5.60;;;11.70;99.90;;;;;;4994451;28;20041;-54
2023/03/30 08:10:11;;;;;;;25.02;6.32;;;11.70;99.90;;;;;;4999436;28;20045;-57
2023/03/30 08:12:37;;;;;;;27.00;5.90;;;11.70;99.90;;;;;;4992886;28;20049;-56
2023/03/30 08:15:03;;;;;;;27.95;6.55;;;11.80;99.90;;;;;;5009422;28;20052;-57
2023/03/30 08:17:29;;;;;;;33.70;5.85;;;11.80;99.90;;;;;;4998434;28;20480;-55
2023/03/30 08:19:55;;;;;;;30.92;5.60;;;11.80;99.90;;;;;;5002337;28;20091;-58
2023/03/30 08:22:21;;;;;;;27.88;5.57;;;11.80;99.90;;;;;;4988799;28;20046;-54
2023/03/30 08:24:47;;;;;;;30.50;7.15;;;11.90;99.90;;;;;;5004406;28;20099;-55
2023/03/30 08:27:13;;;;;;;24.73;4.82;;;11.80;99.90;;;;;;4980241;28;20096;-55
2023/03/30 08:29:40;;;;;;;28.40;6.50;;;11.90;99.90;;;;;;5010768;28;20037;-55
2023/03/30 08:32:06;;;;;;;29.23;5.63;;;11.80;99.90;;;;;;5004666;28;20075;-54
2023/03/30 08:34:33;;;;;;;28.90;5.60;;;11.80;99.90;;;;;;4992219;28;20038;-56
2023/03/30 08:36:58;;;;;;;22.17;5.05;;;11.80;99.90;;;;;;4994352;28;20112;-56
2023/03/30 08:39:25;;;;;;;24.52;4.80;;;11.80;99.90;;;;;;5006233;28;20105;-55
2023/03/30 08:42:27;;;;;;;33.53;6.00;;;11.80;99.90;;;;;;4975405;28;20303;-55
2023/03/30 08:44:56;;;;;;;24.70;5.00;;;11.80;99.90;;;;;;5006567;28;20033;-56
2023/03/30 08:47:32;;;;;;;26.85;5.38;;;11.90;99.90;;;;;;5008982;28;20495;-58
2023/03/30 08:50:30;;;;;;;22.98;5.28;;;12.00;99.90;;;;;;5006775;28;20120;-58
2023/03/30 08:52:56;;;;;;;30.52;5.53;;;12.10;99.90;;;;;;5014948;28;20048;-56
2023/03/30 08:55:49;;;;;;;23.98;5.68;;;12.20;99.90;;;;;;5004567;28;20030;-57
2023/03/30 08:58:33;;;;;;;25.95;6.53;;;12.30;99.90;;;;;;4997610;28;20125;-53
2023/03/30 09:01:10;;;;;;;26.15;4.88;;;12.30;99.90;;;;;;4978924;28;20079;-55
2023/03/30 09:04:02;;;;;;;25.65;5.65;;;12.40;99.90;;;;;;4990919;28;20594;-59
2023/03/30 09:07:00;;;;;;;20.70;4.75;;;12.50;99.90;;;;;;5006189;28;20402;-54
2023/03/30 09:09:36;;;;;;;26.50;4.75;;;12.50;99.90;;;;;;4988256;28;20065;-57
2023/03/30 09:12:10;;;;;;;21.70;4.38;;;12.60;99.90;;;;;;4988791;28;20422;-56
2023/03/30 09:14:50;;;;;;;18.02;5.00;;;12.60;99.90;;;;;;5003427;28;20049;-55
2023/03/30 09:17:25;;;;;;;25.00;4.65;;;12.60;99.90;;;;;;4987245;28;20046;-58
2023/03/30 09:19:57;;;;;;;26.98;4.88;;;12.60;99.90;;;;;;5007602;28;20050;-58
2023/03/30 09:22:39;;;;;;;20.88;4.10;;;12.70;99.90;;;;;;4995525;28;20293;-57
2023/03/30 09:25:40;;;;;;;25.38;5.28;;;12.70;99.90;;;;;;4988594;28;20042;-58
2023/03/30 09:28:21;;;;;;;16.85;5.03;;;12.70;99.90;;;;;;4993561;28;20041;-56
2023/03/30 09:30:55;;;;;;;20.65;5.53;;;12.70;99.90;;;;;;4989588;28;20129;-56
2023/03/30 09:33:40;;;;;;;19.48;4.28;;;12.60;99.90;;;;;;5003568;28;20527;-55
2023/03/30 09:36:24;;;;;;;21.88;4.93;;;12.60;99.90;;;;;;4992622;28;20053;-55
2023/03/30 09:38:50;;;;;;;18.02;3.80;;;12.50;99.90;;;;;;4996889;28;20042;-56
2023/03/30 09:41:54;;;;;;;20.95;4.38;;;12.50;99.90;;;;;;4989581;28;20037;-55
2023/03/30 09:44:46;;;;;;;21.20;4.07;;;12.50;99.90;;;;;;5001025;28;20548;-55
2023/03/30 09:47:26;;;;;;;17.02;4.43;;;12.50;99.90;;;;;;5009263;28;20083;-56
2023/03/30 09:49:59;;;;;;;18.17;4.18;;;12.50;99.90;;;;;;5006658;28;20513;-58
2023/03/30 09:52:28;;;;;;;19.60;5.55;;;12.50;99.90;;;;;;5016280;28;20081;-57
2023/03/30 09:54:54;;;;;;;20.52;3.95;;;12.50;99.90;;;;;;5008136;28;20049;-57
2023/03/30 09:57:30;;;;;;;20.98;4.22;;;12.50;99.90;;;;;;4987067;28;20038;-58
2023/03/30 09:59:58;;;;;;;21.08;3.60;;;12.60;99.90;;;;;;5004955;28;20483;-57
2023/03/30 10:02:26;;;;;;;18.73;3.65;;;12.60;99.90;;;;;;5007159;28;20041;-57
2023/03/30 10:04:52;;;;;;;18.25;3.78;;;12.60;99.90;;;;;;5012040;28;20034;-56
2023/03/30 10:07:25;;;;;;;21.88;3.50;;;12.60;99.90;;;;;;4990249;28;20061;-55
2023/03/30 10:09:51;;;;;;;26.00;5.75;;;12.60;99.90;;;;;;5010246;28;20049;-57
2023/03/30 10:12:17;;;;;;;20.70;4.10;;;12.70;99.90;;;;;;5009263;28;20128;-57
2023/03/30 10:14:44;;;;;;;26.27;5.80;;;12.60;99.90;;;;;;4984518;28;20042;-58
2023/03/30 10:17:24;;;;;;;22.23;5.65;;;12.70;99.90;;;;;;5007671;28;20345;-58
2023/03/30 10:20:13;;;;;;;28.88;5.70;;;12.80;99.90;;;;;;4987193;28;20042;-57
2023/03/30 10:22:50;;;;;;;27.73;6.18;;;12.80;99.90;;;;;;5002127;28;20494;-57
2023/03/30 10:25:22;;;;;;;25.48;4.82;;;12.80;99.90;;;;;;5006931;28;20121;-56
2023/03/30 10:27:54;;;;;;;22.38;5.43;;;12.90;99.90;;;;;;5006378;28;20485;-56
2023/03/30 10:30:23;;;;;;;18.27;4.63;;;12.90;99.90;;;;;;4989930;28;20076;-57
2023/03/30 10:32:51;;;;;;;22.58;5.55;;;12.90;99.90;;;;;;4989166;28;20034;-57
2023/03/30 10:35:33;;;;;;;24.77;5.60;;;12.80;99.90;;;;;;4998019;28;20121;-56
2023/03/30 10:38:00;;;;;;;25.60;4.47;;;12.90;99.90;;;;;;4999776;28;20120;-53
2023/03/30 10:40:35;;;;;;;23.98;4.70;;;12.80;99.90;;;;;;5010677;28;20061;-56
2023/03/30 10:43:02;;;;;;;22.52;5.35;;;12.90;99.90;;;;;;4993551;28;20057;-56
2023/03/30 10:45:33;;;;;;;24.52;5.20;;;12.90;99.90;;;;;;5002921;28;20046;-54
2023/03/30 10:48:18;;;;;;;27.17;5.20;;;12.90;99.90;;;;;;5003286;28;20128;-54
2023/03/30 10:50:51;;;;;;;;;;;13.00;99.90;;;;;;5006967;28;20040;-57
2023/03/30 10:53:28;;;;;;;25.27;4.97;;;12.90;99.90;;;;;;4986891;28;19929;-58
2023/03/30 10:56:20;;;;;;;26.50;5.47;;;13.00;99.90;;;;;;4996474;28;20034;-56
2023/03/30 10:59:04;;;;;;;21.48;4.43;;;13.10;99.90;;;;;;5007596;28;20046;-57
2023/03/30 11:01:40;;;;;;;;;;;13.10;99.90;;;;;;5000188;28;20038;-58
2023/03/30 11:04:16;;;;;;;21.80;5.80;;;13.20;99.90;;;;;;4988842;28;20607;-56
2023/03/30 11:06:43;;;;;;;26.48;6.47;;;13.10;99.90;;;;;;5001201;28;20042;-58
2023/03/30 11:09:26;;;;;;;22.67;4.80;;;13.20;99.90;;;;;;5010400;28;20171;-59
2023/03/30 11:12:00;;;;;;;24.20;5.13;;;13.10;99.90;;;;;;5001640;28;20034;-59
2023/03/30 11:14:42;;;;;;;22.48;5.40;;;13.20;99.90;;;;;;4993082;28;20564;-56
2023/03/30 11:17:16;;;;;;;25.50;5.75;;;13.20;99.90;;;;;;4984991;28;20045;-56
2023/03/30 11:19:47;;;;;;;26.52;5.30;;;13.30;99.90;;;;;;4985122;28;20046;-55
2023/03/30 11:22:37;;;;;;;24.42;5.00;;;13.30;99.90;;;;;;5000241;28;20045;-55
2023/03/30 11:25:16;;;;;;;28.08;5.47;;;13.30;99.90;;;;;;5003647;28;20560;-54
2023/03/30 11:27:58;;;;;;;23.67;4.78;;;13.40;99.90;;;;;;4998308;28;20053;-56
2023/03/30 11:30:32;;;;;;;24.10;5.45;;;13.40;99.90;;;;;;4989553;28;20148;-55
2023/03/30 11:33:36;;;;;;;31.35;6.15;;;13.40;99.90;;;;;;4979220;28;20046;-53
2023/03/30 11:36:17;;;;;;;27.73;5.95;;;13.50;99.90;;;;;;4975944;28;20466;-58
2023/03/30 11:39:06;;;;;;;25.10;4.75;;;13.70;99.90;;;;;;5005478;28;20460;-58
2023/03/30 11:42:02;;;;;;;41.00;7.63;;;13.80;99.90;;;;;;4986818;28;20056;-58
2023/03/30 11:44:28;;;;;;;25.27;5.00;;;13.80;99.90;;;;;;4984751;28;20132;-58
2023/03/30 11:47:07;;;;;;;28.50;5.93;;;14.00;99.90;;;;;;4982733;28;20038;-58
2023/03/30 11:49:57;;;;;;;28.27;5.75;;;14.10;99.90;;;;;;4999895;28;20073;-57
2023/03/30 11:52:41;;;;;;;24.48;5.05;;;14.10;99.90;;;;;;4988107;28;20037;-58
2023/03/30 11:55:39;;;;;;;26.50;4.75;;;14.20;99.90;;;;;;4981579;28;20164;-58
2023/03/30 11:58:20;;;;;;;25.55;4.55;;;14.10;99.90;;;;;;5003478;28;20071;-56
2023/03/30 12:01:14;;;;;;;29.70;6.43;;;14.20;99.90;;;;;;4986736;28;20042;-66
2023/03/30 12:03:55;;;;;;;21.60;4.97;;;14.00;99.90;;;;;;4992902;28;20048;-57
2023/03/30 12:06:29;;;;;;;29.15;5.28;;;14.10;99.90;;;;;;4997177;28;20053;-56
2023/03/30 12:09:19;;;;;;;30.33;6.00;;;14.20;99.90;;;;;;4992650;28;20073;-59
2023/03/30 12:12:02;;;;;;;23.05;4.72;;;14.40;99.90;;;;;;5004713;28;20053;-58
2023/03/30 12:14:31;;;;;;;26.92;5.22;;;14.40;99.90;;;;;;5000446;28;20058;-56
2023/03/30 12:17:01;;;;;;;28.92;5.90;;;14.30;99.90;;;;;;5004208;28;20121;-57
2023/03/30 12:19:35;;;;;;;27.27;5.88;;;14.50;99.90;;;;;;5002364;28;20043;-58
2023/03/30 12:22:11;;;;;;;29.35;7.13;;;14.60;99.90;;;;;;5007444;28;20045;-57
2023/03/30 12:24:39;;;;;;;20.33;5.50;;;14.70;99.90;;;;;;5000712;28;20056;-57
2023/03/30 12:27:05;;;;;;;22.20;5.72;;;14.70;99.90;;;;;;5009337;28;20049;-58
2023/03/30 12:29:48;;;;;;;30.20;6.10;;;14.50;99.90;;;;;;4995046;28;20172;-55
2023/03/30 12:32:21;;;;;;;25.20;6.32;;;14.40;99.90;;;;;;4997096;28;20042;-57
2023/03/30 12:34:47;;;;;;;27.60;6.73;;;14.20;99.90;;;;;;4988930;28;20053;-58
2023/03/30 12:37:33;;;;;;;29.92;6.13;;;14.30;99.90;;;;;;5009986;28;20461;-53
2023/03/30 12:40:21;;;;;;;26.40;5.47;;;14.40;99.90;;;;;;4989749;28;20066;-57
2023/03/30 12:43:16;;;;;;;25.83;5.88;;;14.40;99.90;;;;;;4984655;28;20479;-58
2023/03/30 12:46:04;;;;;;;20.42;5.47;;;14.20;99.90;;;;;;5008732;28;20429;-59
2023/03/30 12:49:14;;;;;;;32.75;6.88;;;14.80;99.90;;;;;;5003315;28;20061;-58
2023/03/30 12:51:59;;;;;;;25.27;5.43;;;14.60;99.90;;;;;;5005708;28;20072;-57
2023/03/30 12:54:36;;;;;;;31.92;7.35;;;14.80;99.90;;;;;;5002533;28;20053;-57
2023/03/30 12:57:21;;;;;;;31.25;6.50;;;14.90;99.90;;;;;;5010242;28;20046;-57
2023/03/30 13:00:23;;;;;;;24.80;5.78;;;15.20;99.90;;;;;;5013122;28;20421;-59
2023/03/30 13:02:53;;;;;;;29.27;6.35;;;15.20;99.90;;;;;;5002326;28;20089;-57
2023/03/30 13:05:50;;;;;;;25.20;5.40;;;15.20;99.90;;;;;;4994187;28;20057;-57